Time;durP1;ratioP1;P1;durP2;ratioP2;P2;SDS_P1;SDS_P2;PMS_P1;PMS_P2;Temp;Humidity;BMP_temperature;BMP_pressure;BME280_temperature;BME280_humidity;BME280_pressure;Samples;Min_cycle;Max_cycle;Signal;HPM_P1;HPM_P2
2023/03/07 00:00:39;;;;;;;16.20;9.30;;;;;;;;;;4940824;29;20482;-77
2023/03/07 00:03:05;;;;;;;16.30;10.93;;;;;;;;;;4937102;28;20467;-77
2023/03/07 00:05:32;;;;;;;10.20;8.27;;;;;;;;;;4940313;28;20412;-77
2023/03/07 00:07:58;;;;;;;9.30;7.27;;;;;;;;;;4937688;28;20510;-77
2023/03/07 00:10:24;;;;;;;15.90;10.60;;;;;;;;;;4923727;29;20928;-77
2023/03/07 00:12:50;;;;;;;7.70;6.50;;;;;;;;;;4936640;28;20598;-78
2023/03/07 00:15:17;;;;;;;13.83;9.90;;;;;;;;;;4940969;28;20505;-78
2023/03/07 00:17:43;;;;;;;18.07;10.43;;;;;;;;;;4936947;28;20452;-77
2023/03/07 00:20:13;;;;;;;15.43;11.50;;;;;;;;;;4941391;29;20434;-79
2023/03/07 00:22:42;;;;;;;7.00;5.67;;;;;;;;;;4916559;28;20543;-77
2023/03/07 00:25:08;;;;;;;18.33;10.33;;;;;;;;;;4942302;28;20487;-78
2023/03/07 00:27:34;;;;;;;6.37;5.67;;;;;;;;;;4919510;28;21091;-78
2023/03/07 00:30:00;;;;;;;10.17;7.30;;;;;;;;;;4922692;28;20451;-77
2023/03/07 00:32:27;;;;;;;11.13;5.50;;;;;;;;;;4937478;28;20545;-78
2023/03/07 00:34:53;;;;;;;7.43;6.47;;;;;;;;;;4941023;29;20443;-77
2023/03/07 00:37:19;;;;;;;9.90;8.87;;;;;;;;;;4939703;28;20189;-77
2023/03/07 00:39:45;;;;;;;9.90;8.90;;;;;;;;;;4937242;28;21079;-77
2023/03/07 00:42:11;;;;;;;10.83;9.37;;;;;;;;;;4940652;28;20435;-76
2023/03/07 00:44:37;;;;;;;8.33;6.60;;;;;;;;;;4936707;28;20424;-76
2023/03/07 00:47:03;;;;;;;9.43;7.70;;;;;;;;;;4940555;28;20524;-77
2023/03/07 00:49:29;;;;;;;6.40;5.80;;;;;;;;;;4936699;28;20432;-77
2023/03/07 00:51:55;;;;;;;10.13;7.33;;;;;;;;;;4940240;29;20907;-77
2023/03/07 00:54:21;;;;;;;7.20;5.73;;;;;;;;;;4938488;28;21116;-79
2023/03/07 00:56:47;;;;;;;8.97;7.37;;;;;;;;;;4940521;28;20482;-77
2023/03/07 00:59:13;;;;;;;12.60;9.10;;;;;;;;;;4937368;28;20573;-77
2023/03/07 01:01:39;;;;;;;9.90;7.50;;;;;;;;;;4941184;29;21068;-76
2023/03/07 01:04:05;;;;;;;13.60;9.13;;;;;;;;;;4937170;28;20767;-77
2023/03/07 01:06:32;;;;;;;7.30;6.43;;;;;;;;;;4924845;28;20466;-77
2023/03/07 01:08:59;;;;;;;10.27;9.17;;;;;;;;;;4919730;29;20414;-77
2023/03/07 01:11:26;;;;;;;10.20;4.70;;;;;;;;;;4942481;28;20698;-77
2023/03/07 01:13:54;;;;;;;4.97;4.50;;;;;;;;;;4920353;29;20496;-78
2023/03/07 01:16:21;;;;;;;9.33;7.40;;;;;;;;;;4945712;29;20492;-77
2023/03/07 01:18:52;;;;;;;9.97;7.80;;;;;;;;;;4925451;29;21080;-76
2023/03/07 01:21:19;;;;;;;7.37;6.67;;;;;;;;;;4942436;28;20457;-77
2023/03/07 01:23:46;;;;;;;6.23;5.57;;;;;;;;;;4930836;28;20463;-77
2023/03/07 01:26:17;;;;;;;12.40;9.67;;;;;;;;;;4923734;28;20515;-77
2023/03/07 01:28:43;;;;;;;6.43;5.82;;;;;;;;;;4936748;28;20606;-77
2023/03/07 01:31:09;;;;;;;9.83;8.83;;;;;;;;;;4937356;28;20306;-77
2023/03/07 01:33:36;;;;;;;7.93;7.03;;;;;;;;;;4937609;28;20795;-76
2023/03/07 01:36:02;;;;;;;7.00;6.40;;;;;;;;;;4939739;28;22683;-76
2023/03/07 01:38:32;;;;;;;7.13;6.43;;;;;;;;;;4937397;28;20562;-78
2023/03/07 01:40:59;;;;;;;7.43;6.77;;;;;;;;;;4935910;28;20807;-77
2023/03/07 01:43:27;;;;;;;6.70;6.10;;;;;;;;;;4938338;28;20437;-77
2023/03/07 01:46:02;;;;;;;12.00;9.43;;;;;;;;;;4926314;29;20449;-78
2023/03/07 01:48:28;;;;;;;7.83;7.13;;;;;;;;;;4941342;28;20453;-77
2023/03/07 01:50:54;;;;;;;12.87;7.80;;;;;;;;;;4925706;29;20476;-77
2023/03/07 01:53:20;;;;;;;9.70;7.10;;;;;;;;;;4940355;28;20505;-78
2023/03/07 01:55:46;;;;;;;8.07;7.30;;;;;;;;;;4920164;29;20432;-76
2023/03/07 01:58:13;;;;;;;10.23;7.67;;;;;;;;;;4940158;28;21067;-76
2023/03/07 02:00:40;;;;;;;7.00;6.50;;;;;;;;;;4941557;28;22460;-77
2023/03/07 02:03:10;;;;;;;4.27;3.87;;;;;;;;;;4934636;28;20517;-76
2023/03/07 02:05:42;;;;;;;7.63;7.03;;;;;;;;;;4939095;28;20739;-77
2023/03/07 02:08:10;;;;;;;5.87;5.37;;;;;;;;;;4938199;28;20537;-78
2023/03/07 02:10:37;;;;;;;5.67;5.17;;;;;;;;;;4943482;28;20445;-79
2023/03/07 02:13:03;;;;;;;6.23;5.73;;;;;;;;;;4936270;28;21055;-78
2023/03/07 02:15:29;;;;;;;5.03;4.72;;;;;;;;;;4923229;29;20446;-77
2023/03/07 02:18:00;;;;;;;5.07;4.77;;;;;;;;;;4934672;28;20487;-78
2023/03/07 02:20:32;;;;;;;6.03;5.50;;;;;;;;;;4939222;28;20453;-78
2023/03/07 02:22:58;;;;;;;3.30;3.20;;;;;;;;;;4933021;28;20516;-79
2023/03/07 02:25:24;;;;;;;4.23;4.03;;;;;;;;;;4940566;28;20434;-77
2023/03/07 02:27:52;;;;;;;5.17;4.87;;;;;;;;;;4938290;28;20432;-77
2023/03/07 02:30:18;;;;;;;4.57;4.27;;;;;;;;;;4940981;28;20463;-78
2023/03/07 02:32:44;;;;;;;4.82;4.38;;;;;;;;;;4936194;28;20459;-77
2023/03/07 02:35:12;;;;;;;4.75;4.55;;;;;;;;;;4942271;28;20711;-76
2023/03/07 02:37:39;;;;;;;4.20;3.90;;;;;;;;;;4937222;28;21047;-78
2023/03/07 02:40:07;;;;;;;3.17;2.97;;;;;;;;;;4941362;28;20760;-78
2023/03/07 02:42:35;;;;;;;1.90;1.80;;;;;;;;;;4938518;28;20875;-77
2023/03/07 02:45:02;;;;;;;4.63;4.23;;;;;;;;;;4941643;28;22365;-78
2023/03/07 02:47:28;;;;;;;4.10;3.70;;;;;;;;;;4939275;28;20478;-77
2023/03/07 02:49:54;;;;;;;3.90;3.70;;;;;;;;;;4921694;29;20438;-78
2023/03/07 02:52:21;;;;;;;2.63;2.47;;;;;;;;;;4941989;28;20890;-78
2023/03/07 02:54:47;;;;;;;3.23;3.10;;;;;;;;;;4937195;28;20503;-78
2023/03/07 02:57:13;;;;;;;3.70;3.50;;;;;;;;;;4941901;28;20533;-77
2023/03/07 02:59:39;;;;;;;3.70;3.50;;;;;;;;;;4938275;28;20537;-77
2023/03/07 03:02:05;;;;;;;4.97;4.60;;;;;;;;;;4943448;28;20466;-78
2023/03/07 03:04:31;;;;;;;3.40;2.93;;;;;;;;;;4939590;28;20785;-78
2023/03/07 03:06:57;;;;;;;4.17;3.90;;;;;;;;;;4942160;28;20470;-77
2023/03/07 03:09:23;;;;;;;4.90;4.60;;;;;;;;;;4938328;28;20496;-78
2023/03/07 03:11:49;;;;;;;3.40;3.20;;;;;;;;;;4924874;28;20507;-78
2023/03/07 03:14:15;;;;;;;3.30;3.20;;;;;;;;;;4938426;28;20498;-77
2023/03/07 03:16:41;;;;;;;3.77;3.67;;;;;;;;;;4941982;28;20458;-76
2023/03/07 03:19:07;;;;;;;4.23;4.03;;;;;;;;;;4938644;28;20428;-78
2023/03/07 03:21:33;;;;;;;5.07;4.87;;;;;;;;;;4943972;28;20451;-78
2023/03/07 03:24:03;;;;;;;5.10;4.60;;;;;;;;;;4900892;28;20734;-78
2023/03/07 03:26:29;;;;;;;4.85;4.65;;;;;;;;;;4938411;28;20717;-77
2023/03/07 03:28:55;;;;;;;5.27;4.97;;;;;;;;;;4932765;28;20273;-79
2023/03/07 03:31:21;;;;;;;4.17;4.00;;;;;;;;;;4936509;28;21000;-78
2023/03/07 03:33:49;;;;;;;5.20;4.80;;;;;;;;;;4921909;28;20426;-78
2023/03/07 03:36:16;;;;;;;4.03;3.83;;;;;;;;;;4935141;28;21244;-78
2023/03/07 03:38:42;;;;;;;4.18;3.92;;;;;;;;;;4934416;28;20516;-78
2023/03/07 03:41:11;;;;;;;3.03;2.93;;;;;;;;;;4934843;28;20190;-77
2023/03/07 03:43:37;;;;;;;4.47;4.20;;;;;;;;;;4935068;28;20438;-77
2023/03/07 03:46:06;;;;;;;2.35;1.98;;;;;;;;;;4935935;28;20576;-78
2023/03/07 03:48:32;;;;;;;2.70;2.60;;;;;;;;;;4931822;28;20274;-77
2023/03/07 03:51:03;;;;;;;4.97;4.67;;;;;;;;;;4935635;28;20211;-77
2023/03/07 03:53:29;;;;;;;3.53;3.30;;;;;;;;;;4932559;28;20463;-77
2023/03/07 03:56:02;;;;;;;4.22;3.92;;;;;;;;;;4935986;28;20533;-77
2023/03/07 03:58:28;;;;;;;4.70;4.50;;;;;;;;;;4931286;28;20274;-77
2023/03/07 04:00:55;;;;;;;4.57;4.27;;;;;;;;;;4935979;28;20436;-78
2023/03/07 04:03:21;;;;;;;4.07;2.63;;;;;;;;;;4933087;28;20430;-76
2023/03/07 04:05:47;;;;;;;4.37;4.07;;;;;;;;;;4924616;28;20191;-77
2023/03/07 04:08:13;;;;;;;9.37;8.40;;;;;;;;;;4933105;28;20963;-80
2023/03/07 04:10:39;;;;;;;4.73;4.47;;;;;;;;;;4938650;28;20426;-81
2023/03/07 04:13:06;;;;;;;2.97;2.00;;;;;;;;;;4931771;28;21283;-77
2023/03/07 04:15:32;;;;;;;5.18;4.88;;;;;;;;;;4922111;29;20956;-77
2023/03/07 04:17:58;;;;;;;4.57;4.27;;;;;;;;;;4931326;28;20206;-77
2023/03/07 04:20:24;;;;;;;3.90;3.80;;;;;;;;;;4937505;28;20492;-80
2023/03/07 04:22:50;;;;;;;6.23;5.70;;;;;;;;;;4930795;28;20830;-79
2023/03/07 04:25:16;;;;;;;4.87;4.67;;;;;;;;;;4935515;28;20464;-77
2023/03/07 04:27:45;;;;;;;5.53;5.23;;;;;;;;;;4929022;28;20994;-78
2023/03/07 04:30:11;;;;;;;5.10;4.70;;;;;;;;;;4937234;28;20441;-77
2023/03/07 04:32:38;;;;;;;6.10;5.57;;;;;;;;;;4921512;29;20473;-78
2023/03/07 04:35:04;;;;;;;9.57;7.93;;;;;;;;;;4936280;28;20428;-78
2023/03/07 04:37:31;;;;;;;7.13;6.53;;;;;;;;;;4932802;28;20443;-78
2023/03/07 04:39:57;;;;;;;9.43;8.48;;;;;;;;;;4921464;29;20656;-78
2023/03/07 04:42:23;;;;;;;14.10;7.90;;;;;;;;;;4933441;28;20231;-78
2023/03/07 04:44:49;;;;;;;10.32;9.32;;;;;;;;;;4934216;28;20498;-78
2023/03/07 04:47:15;;;;;;;10.90;7.50;;;;;;;;;;4936740;28;20214;-78
2023/03/07 04:49:41;;;;;;;9.70;8.77;;;;;;;;;;4934802;28;20544;-78
2023/03/07 04:52:07;;;;;;;13.00;9.90;;;;;;;;;;4921272;29;20526;-78
2023/03/07 04:54:33;;;;;;;8.50;5.97;;;;;;;;;;4916527;28;20428;-77
2023/03/07 04:56:59;;;;;;;11.80;9.23;;;;;;;;;;4925457;28;20534;-76
2023/03/07 04:59:25;;;;;;;11.70;10.50;;;;;;;;;;4935538;28;20552;-77
2023/03/07 05:01:51;;;;;;;10.97;9.93;;;;;;;;;;4930967;28;20504;-77
2023/03/07 05:04:17;;;;;;;12.23;10.77;;;;;;;;;;4931804;29;20462;-78
2023/03/07 05:06:46;;;;;;;11.43;9.30;;;;;;;;;;4929193;29;20513;-78
2023/03/07 05:09:12;;;;;;;6.63;6.00;;;;;;;;;;4946573;28;20446;-77
2023/03/07 05:11:38;;;;;;;16.73;10.03;;;;;;;;;;4943953;28;20317;-79
2023/03/07 05:14:04;;;;;;;14.45;9.32;;;;;;;;;;4933997;28;20472;-78
2023/03/07 05:16:30;;;;;;;8.52;7.75;;;;;;;;;;4946003;28;20183;-77
2023/03/07 05:18:56;;;;;;;13.10;11.37;;;;;;;;;;4943404;28;20270;-78
2023/03/07 05:21:22;;;;;;;12.03;10.77;;;;;;;;;;4952401;28;20988;-79
2023/03/07 05:23:50;;;;;;;12.23;10.17;;;;;;;;;;4942982;29;20504;-79
2023/03/07 05:26:16;;;;;;;13.47;11.80;;;;;;;;;;4950115;29;20751;-80
2023/03/07 05:28:42;;;;;;;11.73;10.53;;;;;;;;;;4947132;29;21043;-82
2023/03/07 05:31:08;;;;;;;11.43;9.83;;;;;;;;;;4952196;29;20648;-83
2023/03/07 05:33:34;;;;;;;9.87;8.50;;;;;;;;;;4945079;29;20955;-78
2023/03/07 05:36:01;;;;;;;13.30;11.83;;;;;;;;;;4949692;29;20489;-78
2023/03/07 05:38:28;;;;;;;11.43;10.07;;;;;;;;;;4945407;29;20473;-78
2023/03/07 05:40:54;;;;;;;17.00;12.87;;;;;;;;;;4949551;29;20186;-79
2023/03/07 05:43:20;;;;;;;12.30;10.53;;;;;;;;;;4951506;28;20483;-79
2023/03/07 05:45:46;;;;;;;11.30;9.93;;;;;;;;;;4954076;28;21034;-78
2023/03/07 05:48:12;;;;;;;14.03;12.53;;;;;;;;;;4945732;29;20438;-78
2023/03/07 05:50:38;;;;;;;16.60;10.97;;;;;;;;;;4941948;28;20434;-80
2023/03/07 05:53:05;;;;;;;16.47;11.90;;;;;;;;;;4942576;29;20459;-78
2023/03/07 05:55:31;;;;;;;13.35;11.23;;;;;;;;;;4926215;29;20463;-79
2023/03/07 05:57:57;;;;;;;7.07;6.47;;;;;;;;;;4947183;28;20198;-79
2023/03/07 06:00:23;;;;;;;11.67;10.50;;;;;;;;;;4937828;29;20630;-81
2023/03/07 06:02:49;;;;;;;7.17;6.57;;;;;;;;;;4946476;29;20435;-80
2023/03/07 06:05:15;;;;;;;7.72;6.97;;;;;;;;;;4943931;28;20505;-79
2023/03/07 06:07:41;;;;;;;10.10;9.00;;;;;;;;;;4957573;28;20183;-80
2023/03/07 06:10:08;;;;;;;9.53;8.17;;;;;;;;;;4953199;29;20434;-80
2023/03/07 06:12:35;;;;;;;11.87;9.50;;;;;;;;;;4930830;29;20474;-78
2023/03/07 06:15:02;;;;;;;8.65;7.80;;;;;;;;;;4943348;28;20521;-79
2023/03/07 06:17:28;;;;;;;14.07;10.30;;;;;;;;;;4948493;28;20194;-79
2023/03/07 06:19:55;;;;;;;13.43;11.88;;;;;;;;;;4935624;29;20432;-80
2023/03/07 06:22:21;;;;;;;10.07;8.63;;;;;;;;;;4946970;29;20188;-79
2023/03/07 06:24:47;;;;;;;15.20;9.93;;;;;;;;;;4944514;29;20713;-79
2023/03/07 06:27:13;;;;;;;12.37;10.33;;;;;;;;;;4948471;29;21174;-79
2023/03/07 06:29:39;;;;;;;9.07;7.73;;;;;;;;;;4944018;28;21174;-79
2023/03/07 06:32:05;;;;;;;13.93;10.70;;;;;;;;;;4938039;29;20493;-77
2023/03/07 06:34:31;;;;;;;16.92;13.77;;;;;;;;;;4943703;29;20421;-79
2023/03/07 06:36:57;;;;;;;14.00;12.57;;;;;;;;;;4947362;29;20205;-79
2023/03/07 06:39:23;;;;;;;10.60;8.70;;;;;;;;;;4944481;28;20444;-78
2023/03/07 06:41:49;;;;;;;15.60;11.40;;;;;;;;;;4948325;28;21016;-78
2023/03/07 06:44:18;;;;;;;10.57;9.47;;;;;;;;;;4939857;29;20816;-77
2023/03/07 06:46:44;;;;;;;14.83;12.30;;;;;;;;;;4925882;29;20435;-79
2023/03/07 06:49:11;;;;;;;14.15;11.75;;;;;;;;;;4943434;28;20477;-80
2023/03/07 06:51:37;;;;;;;9.60;6.20;;;;;;;;;;4947030;28;20272;-78
2023/03/07 06:54:03;;;;;;;9.50;8.60;;;;;;;;;;4943628;28;20984;-78
2023/03/07 06:56:30;;;;;;;20.03;10.30;;;;;;;;;;4947600;28;20411;-79
2023/03/07 06:58:56;;;;;;;16.83;12.37;;;;;;;;;;4943307;29;20445;-79
2023/03/07 07:01:22;;;;;;;10.50;9.40;;;;;;;;;;4947515;29;20433;-78
2023/03/07 07:03:48;;;;;;;12.43;9.27;;;;;;;;;;4943623;29;20678;-81
2023/03/07 07:06:15;;;;;;;8.40;7.67;;;;;;;;;;4947187;29;20225;-80
2023/03/07 07:08:40;;;;;;;9.43;8.50;;;;;;;;;;4926343;29;20413;-77
2023/03/07 07:11:07;;;;;;;7.87;7.00;;;;;;;;;;4948189;28;20564;-76
2023/03/07 07:13:33;;;;;;;18.97;12.97;;;;;;;;;;4926730;29;20446;-78
2023/03/07 07:16:03;;;;;;;18.90;10.00;;;;;;;;;;4946804;29;20397;-78
2023/03/07 07:18:29;;;;;;;10.37;9.40;;;;;;;;;;4943497;29;20445;-77
2023/03/07 07:20:55;;;;;;;9.97;7.80;;;;;;;;;;4930272;29;20805;-78
2023/03/07 07:23:21;;;;;;;5.17;4.77;;;;;;;;;;4940862;28;20476;-78
2023/03/07 07:25:47;;;;;;;11.25;9.45;;;;;;;;;;4947364;29;20385;-79
2023/03/07 07:28:13;;;;;;;9.13;8.20;;;;;;;;;;4943509;29;20214;-79
2023/03/07 07:30:39;;;;;;;13.17;10.30;;;;;;;;;;4930350;29;20503;-79
2023/03/07 07:33:05;;;;;;;10.47;8.20;;;;;;;;;;4943336;29;20504;-79
2023/03/07 07:35:31;;;;;;;8.48;7.00;;;;;;;;;;4929350;29;20919;-79
2023/03/07 07:38:00;;;;;;;6.70;6.17;;;;;;;;;;4942894;29;20194;-79
2023/03/07 07:40:26;;;;;;;11.37;9.40;;;;;;;;;;4937284;28;21352;-79
2023/03/07 07:42:53;;;;;;;11.13;7.73;;;;;;;;;;4938497;29;20454;-78
2023/03/07 07:45:20;;;;;;;14.55;11.05;;;;;;;;;;4934125;29;21772;-79
2023/03/07 07:47:48;;;;;;;12.20;9.63;;;;;;;;;;4932836;29;20187;-79
2023/03/07 07:50:14;;;;;;;5.63;5.13;;;;;;;;;;4917228;29;20218;-79
2023/03/07 07:52:40;;;;;;;8.60;7.87;;;;;;;;;;4934871;29;21036;-79
2023/03/07 07:55:06;;;;;;;7.63;6.90;;;;;;;;;;4932582;29;20461;-80
2023/03/07 07:57:32;;;;;;;10.13;8.40;;;;;;;;;;4937969;29;20778;-77
2023/03/07 07:59:58;;;;;;;15.83;11.43;;;;;;;;;;4935547;28;20565;-79
2023/03/07 08:02:25;;;;;;;14.30;11.67;;;;;;;;;;4939325;29;20536;-79
2023/03/07 08:04:51;;;;;;;6.45;5.82;;;;;;;;;;4931755;29;20454;-78
2023/03/07 08:07:17;;;;;;;11.73;10.00;;;;;;;;;;4934328;29;20222;-78
2023/03/07 08:09:43;;;;;;;8.43;6.80;;;;;;;;;;4934245;29;20457;-78
2023/03/07 08:12:11;;;;;;;7.40;6.30;;;;;;;;;;4936873;28;20468;-78
2023/03/07 08:14:37;;;;;;;11.93;10.70;;;;;;;;;;4929619;29;20459;-78
2023/03/07 08:17:03;;;;;;;6.40;5.40;;;;;;;;;;4934498;29;20446;-79
2023/03/07 08:19:29;;;;;;;10.10;9.10;;;;;;;;;;4913489;29;20454;-79
2023/03/07 08:21:55;;;;;;;11.00;8.20;;;;;;;;;;4931809;29;20438;-79
2023/03/07 08:24:21;;;;;;;13.30;9.60;;;;;;;;;;4936585;28;20596;-80
2023/03/07 08:26:47;;;;;;;10.17;9.17;;;;;;;;;;4936619;29;20998;-80
2023/03/07 08:29:13;;;;;;;13.37;9.57;;;;;;;;;;4935340;29;20460;-81
2023/03/07 08:31:42;;;;;;;10.23;9.27;;;;;;;;;;4938498;29;20468;-78
2023/03/07 08:34:08;;;;;;;7.55;6.70;;;;;;;;;;4938526;29;20404;-80
2023/03/07 08:36:34;;;;;;;11.40;10.25;;;;;;;;;;4939283;29;20275;-80
2023/03/07 08:39:00;;;;;;;14.27;10.30;;;;;;;;;;4940799;29;20202;-79
2023/03/07 08:41:27;;;;;;;9.17;8.27;;;;;;;;;;4940282;29;20467;-81
2023/03/07 08:43:54;;;;;;;14.13;11.77;;;;;;;;;;4925214;29;20434;-79
2023/03/07 08:46:20;;;;;;;11.80;10.50;;;;;;;;;;4935504;29;20717;-81
2023/03/07 08:48:46;;;;;;;9.53;7.93;;;;;;;;;;4942684;29;20450;-80
2023/03/07 08:51:14;;;;;;;26.90;14.02;;;;;;;;;;4935388;29;20447;-81
2023/03/07 08:53:42;;;;;;;8.45;7.20;;;;;;;;;;4937323;29;20331;-81
2023/03/07 08:56:12;;;;;;;10.93;7.85;;;;;;;;;;4943680;29;20445;-80
2023/03/07 08:58:38;;;;;;;12.15;8.68;;;;;;;;;;4945759;29;20179;-80
2023/03/07 09:01:05;;;;;;;18.52;11.85;;;;;;;;;;4942854;28;20319;-81
2023/03/07 09:03:31;;;;;;;8.90;8.00;;;;;;;;;;4945473;29;20201;-81
2023/03/07 09:05:57;;;;;;;12.13;10.83;;;;;;;;;;4938857;28;20455;-83
2023/03/07 09:08:23;;;;;;;17.17;11.93;;;;;;;;;;4938694;29;20450;-79
2023/03/07 09:10:50;;;;;;;14.77;12.03;;;;;;;;;;4937037;29;20543;-79
2023/03/07 09:13:17;;;;;;;11.87;10.50;;;;;;;;;;4940784;29;20464;-82
2023/03/07 09:15:43;;;;;;;13.23;8.88;;;;;;;;;;4937239;29;20461;-80
2023/03/07 09:18:09;;;;;;;10.30;9.02;;;;;;;;;;4941559;29;20208;-79
2023/03/07 09:20:37;;;;;;;10.63;8.73;;;;;;;;;;4944438;28;20209;-79
2023/03/07 09:23:04;;;;;;;11.47;8.20;;;;;;;;;;4950088;29;20198;-78
2023/03/07 09:25:30;;;;;;;14.80;12.10;;;;;;;;;;4943923;29;20506;-80
2023/03/07 09:27:56;;;;;;;10.30;9.30;;;;;;;;;;4945835;29;20851;-81
2023/03/07 09:30:22;;;;;;;8.85;6.95;;;;;;;;;;4935689;29;20442;-81
2023/03/07 09:32:49;;;;;;;5.30;4.82;;;;;;;;;;4938900;29;20234;-78
2023/03/07 09:35:15;;;;;;;8.70;7.03;;;;;;;;;;4934616;29;20839;-80
2023/03/07 09:37:41;;;;;;;7.33;6.80;;;;;;;;;;4934302;29;20590;-80
2023/03/07 09:40:07;;;;;;;7.40;6.77;;;;;;;;;;4931480;28;20586;-80
2023/03/07 09:42:36;;;;;;;6.57;5.97;;;;;;;;;;4933896;29;20433;-81
2023/03/07 09:45:20;;;;;;;6.60;6.20;;;;;;;;;;4920897;29;20970;-82
2023/03/07 09:48:02;;;;;;;5.95;5.45;;;;;;;;;;4947297;29;20428;-82
2023/03/07 09:50:30;;;;;;;6.32;5.78;;;;;;;;;;4943385;28;20210;-81
2023/03/07 09:52:59;;;;;;;6.00;5.50;;;;;;;;;;4936211;29;20258;-81
2023/03/07 09:55:27;;;;;;;7.27;6.77;;;;;;;;;;4930898;28;20442;-80
2023/03/07 09:57:57;;;;;;;6.57;5.97;;;;;;;;;;4945718;29;20478;-81
2023/03/07 10:00:29;;;;;;;6.10;5.60;;;;;;;;;;4947413;28;20933;-80
2023/03/07 10:03:15;;;;;;;6.60;5.90;;;;;;;;;;4946139;28;20696;-81
2023/03/07 10:05:43;;;;;;;7.60;6.80;;;;;;;;;;4942919;29;20420;-83
2023/03/07 10:08:20;;;;;;;6.03;5.47;;;;;;;;;;4944436;29;20488;-81
2023/03/07 10:10:56;;;;;;;5.53;5.17;;;;;;;;;;4947019;29;20440;-81
2023/03/07 10:13:38;;;;;;;7.33;6.70;;;;;;;;;;4946205;29;20837;-81
2023/03/07 10:16:12;;;;;;;7.83;7.10;;;;;;;;;;4943787;29;20444;-82
2023/03/07 10:18:38;;;;;;;8.90;8.00;;;;;;;;;;4948678;29;20434;-81
2023/03/07 10:21:14;;;;;;;11.47;9.63;;;;;;;;;;4945435;28;20194;-81
2023/03/07 10:23:51;;;;;;;9.77;8.27;;;;;;;;;;4946637;29;20444;-81
2023/03/07 10:26:34;;;;;;;11.27;8.60;;;;;;;;;;4935531;28;20528;-79
2023/03/07 10:29:02;;;;;;;10.70;9.00;;;;;;;;;;4948479;29;20442;-80
2023/03/07 10:31:38;;;;;;;10.63;8.20;;;;;;;;;;4936279;28;20474;-81
2023/03/07 10:34:19;;;;;;;12.65;10.15;;;;;;;;;;4948450;28;20760;-79
2023/03/07 10:36:46;;;;;;;14.00;10.35;;;;;;;;;;4936813;29;20377;-81
2023/03/07 10:39:20;;;;;;;16.67;11.50;;;;;;;;;;4940761;28;20191;-79
2023/03/07 10:41:46;;;;;;;15.43;10.82;;;;;;;;;;4941127;28;20434;-80
2023/03/07 10:44:16;;;;;;;16.77;12.02;;;;;;;;;;4946087;29;20186;-79
2023/03/07 10:46:43;;;;;;;18.10;13.30;;;;;;;;;;4943208;28;20195;-79
2023/03/07 10:49:14;;;;;;;19.05;12.98;;;;;;;;;;4946514;28;20715;-80
2023/03/07 10:51:47;;;;;;;21.47;14.10;;;;;;;;;;4927598;29;20761;-80
2023/03/07 10:54:17;;;;;;;17.00;11.20;;;;;;;;;;4940037;29;20940;-79
2023/03/07 10:57:02;;;;;;;18.60;13.93;;;;;;;;;;4945798;29;20533;-81
2023/03/07 10:59:28;;;;;;;24.43;15.03;;;;;;;;;;4943981;28;20712;-80
2023/03/07 11:01:56;;;;;;;17.23;12.30;;;;;;;;;;4943874;28;20515;-78
2023/03/07 11:04:23;;;;;;;20.93;11.57;;;;;;;;;;4943844;29;20627;-78
2023/03/07 11:06:52;;;;;;;19.60;11.07;;;;;;;;;;4925390;29;20419;-77
2023/03/07 11:09:18;;;;;;;16.57;11.40;;;;;;;;;;4935821;28;20924;-80
2023/03/07 11:11:49;;;;;;;12.17;9.53;;;;;;;;;;4943859;28;20499;-78
2023/03/07 11:14:15;;;;;;;11.87;8.40;;;;;;;;;;4942394;28;20456;-78
2023/03/07 11:16:47;;;;;;;15.50;10.85;;;;;;;;;;4942515;28;20507;-77
2023/03/07 11:19:32;;;;;;;13.10;7.90;;;;;;;;;;4940429;28;20610;-78
2023/03/07 11:22:00;;;;;;;15.20;9.32;;;;;;;;;;4939733;28;21118;-79
2023/03/07 11:24:27;;;;;;;19.33;10.87;;;;;;;;;;4939959;28;20547;-77
2023/03/07 11:26:54;;;;;;;21.77;9.75;;;;;;;;;;4939888;28;20413;-79
2023/03/07 11:29:20;;;;;;;13.85;11.32;;;;;;;;;;4946493;28;20821;-79
2023/03/07 11:31:49;;;;;;;21.13;13.30;;;;;;;;;;4933061;29;20307;-78
2023/03/07 11:34:15;;;;;;;15.57;11.07;;;;;;;;;;4946399;28;20529;-77
2023/03/07 11:36:47;;;;;;;18.47;13.00;;;;;;;;;;4954740;28;20205;-78
2023/03/07 11:39:22;;;;;;;17.60;11.83;;;;;;;;;;4945971;28;20413;-77
2023/03/07 11:41:54;;;;;;;17.90;11.55;;;;;;;;;;4931285;29;20415;-77
2023/03/07 11:44:33;;;;;;;14.73;10.80;;;;;;;;;;4925532;28;20576;-77
2023/03/07 11:47:11;;;;;;;9.33;8.40;;;;;;;;;;4942638;28;20986;-80
2023/03/07 11:49:49;;;;;;;18.10;9.83;;;;;;;;;;4943023;28;20433;-78
2023/03/07 11:52:41;;;;;;;7.73;7.00;;;;;;;;;;4943651;28;20444;-77
2023/03/07 11:55:16;;;;;;;7.17;6.47;;;;;;;;;;4931547;29;20437;-79
2023/03/07 11:57:52;;;;;;;10.87;8.43;;;;;;;;;;4947125;28;20416;-78
2023/03/07 12:00:31;;;;;;;9.43;8.53;;;;;;;;;;4942764;28;20408;-78
2023/03/07 12:02:57;;;;;;;7.20;6.60;;;;;;;;;;4945597;28;20488;-79
2023/03/07 12:05:42;;;;;;;6.63;6.13;;;;;;;;;;4924474;28;20503;-79
2023/03/07 12:08:31;;;;;;;6.17;5.87;;;;;;;;;;4940060;29;20438;-77
2023/03/07 12:10:57;;;;;;;6.43;5.70;;;;;;;;;;4880983;29;21021;-78
2023/03/07 12:13:23;;;;;;;6.10;5.00;;;;;;;;;;4945495;29;20450;-79
2023/03/07 12:15:49;;;;;;;8.80;6.57;;;;;;;;;;4924350;29;20518;-76
2023/03/07 12:18:31;;;;;;;8.50;7.70;;;;;;;;;;4946624;28;20404;-80
2023/03/07 12:21:16;;;;;;;9.85;8.05;;;;;;;;;;4933842;29;20340;-79
2023/03/07 12:23:45;;;;;;;7.10;6.40;;;;;;;;;;4941303;29;20198;-80
2023/03/07 12:26:15;;;;;;;7.53;5.70;;;;;;;;;;4936876;29;20549;-85
2023/03/07 12:28:41;;;;;;;7.47;6.75;;;;;;;;;;4957515;28;20505;-85
2023/03/07 12:31:22;;;;;;;6.40;5.80;;;;;;;;;;4950772;29;20202;-83
2023/03/07 12:33:48;;;;;;;5.20;4.80;;;;;;;;;;4955053;29;20413;-83
2023/03/07 12:36:26;;;;;;;5.43;5.03;;;;;;;;;;4947993;29;20455;-83
2023/03/07 12:39:10;;;;;;;5.63;5.13;;;;;;;;;;4932333;29;20971;-82
2023/03/07 12:41:36;;;;;;;6.32;5.75;;;;;;;;;;4944465;29;20229;-78
2023/03/07 12:44:06;;;;;;;6.47;5.87;;;;;;;;;;4945269;29;20305;-78
2023/03/07 12:46:43;;;;;;;7.20;6.22;;;;;;;;;;4941675;28;20801;-79
2023/03/07 12:49:15;;;;;;;7.50;6.70;;;;;;;;;;4945262;28;20189;-78
2023/03/07 12:51:54;;;;;;;5.40;4.97;;;;;;;;;;4921453;29;21051;-78
2023/03/07 12:54:24;;;;;;;9.53;6.70;;;;;;;;;;4945571;29;20436;-78
2023/03/07 12:57:05;;;;;;;7.30;5.10;;;;;;;;;;4931410;29;20454;-79
2023/03/07 12:59:35;;;;;;;10.65;7.32;;;;;;;;;;4946506;28;20194;-79
2023/03/07 13:02:03;;;;;;;8.07;7.27;;;;;;;;;;4937078;29;20253;-80
2023/03/07 13:04:32;;;;;;;9.60;5.85;;;;;;;;;;4944603;28;20446;-79
2023/03/07 13:07:25;;;;;;;10.75;6.72;;;;;;;;;;4935427;28;20203;-78
2023/03/07 13:10:03;;;;;;;7.37;6.17;;;;;;;;;;4919669;29;20548;-79
2023/03/07 13:12:36;;;;;;;9.52;7.07;;;;;;;;;;4949326;28;20484;-80
2023/03/07 13:15:06;;;;;;;6.10;5.65;;;;;;;;;;4942674;28;20231;-79
2023/03/07 13:17:32;;;;;;;5.97;5.57;;;;;;;;;;4923819;28;20555;-79
2023/03/07 13:19:59;;;;;;;4.80;4.40;;;;;;;;;;4926414;29;20632;-78
2023/03/07 13:22:25;;;;;;;6.20;5.70;;;;;;;;;;4934023;28;20425;-82
2023/03/07 13:24:54;;;;;;;6.03;5.40;;;;;;;;;;4928983;29;20249;-81
2023/03/07 13:27:22;;;;;;;5.90;5.50;;;;;;;;;;4945506;29;20449;-82
2023/03/07 13:30:06;;;;;;;3.90;3.70;;;;;;;;;;4946632;29;20397;-82
2023/03/07 13:32:48;;;;;;;5.50;5.00;;;;;;;;;;4943395;29;21030;-83
2023/03/07 13:35:32;;;;;;;6.03;5.30;;;;;;;;;;4931593;28;20533;-82
2023/03/07 13:38:02;;;;;;;4.43;4.22;;;;;;;;;;4943569;28;20820;-82
2023/03/07 13:40:34;;;;;;;4.47;4.07;;;;;;;;;;4951036;28;20202;-82
2023/03/07 13:43:05;;;;;;;5.00;4.50;;;;;;;;;;4948648;28;20507;-81
2023/03/07 13:45:37;;;;;;;5.88;5.35;;;;;;;;;;4951939;28;20404;-82
2023/03/07 13:48:23;;;;;;;4.40;4.20;;;;;;;;;;4947489;28;20223;-82
2023/03/07 13:50:55;;;;;;;3.33;3.23;;;;;;;;;;4949142;29;20440;-82
2023/03/07 13:53:24;;;;;;;5.10;4.80;;;;;;;;;;4947688;28;20532;-82
2023/03/07 13:55:55;;;;;;;4.67;4.27;;;;;;;;;;4952392;29;20443;-81
2023/03/07 13:58:35;;;;;;;5.10;4.80;;;;;;;;;;4939722;28;20615;-82
2023/03/07 14:01:12;;;;;;;5.63;5.15;;;;;;;;;;4949488;29;20206;-82
2023/03/07 14:03:58;;;;;;;6.80;5.33;;;;;;;;;;4947029;29;20202;-83
2023/03/07 14:06:36;;;;;;;5.15;4.80;;;;;;;;;;4915100;29;20400;-82
2023/03/07 14:09:03;;;;;;;5.13;4.82;;;;;;;;;;4940953;29;20269;-79
2023/03/07 14:11:42;;;;;;;5.03;4.60;;;;;;;;;;4927335;29;20216;-79
2023/03/07 14:14:14;;;;;;;4.78;4.53;;;;;;;;;;4937421;29;20434;-79
2023/03/07 14:16:46;;;;;;;6.43;4.10;;;;;;;;;;4926560;29;20420;-78
2023/03/07 14:19:21;;;;;;;3.40;3.00;;;;;;;;;;4940184;29;20486;-83
2023/03/07 14:21:53;;;;;;;3.92;3.53;;;;;;;;;;4935197;29;20206;-78
2023/03/07 14:24:42;;;;;;;5.17;4.77;;;;;;;;;;4945917;29;20231;-80
2023/03/07 14:27:12;;;;;;;6.85;4.38;;;;;;;;;;4934582;29;20454;-81
2023/03/07 14:29:47;;;;;;;3.53;3.42;;;;;;;;;;4949601;29;20551;-80
2023/03/07 14:32:29;;;;;;;4.67;4.27;;;;;;;;;;4919990;29;20218;-80
2023/03/07 14:34:56;;;;;;;4.85;4.65;;;;;;;;;;4944912;29;20461;-82
2023/03/07 14:37:25;;;;;;;5.13;4.72;;;;;;;;;;4951567;28;20186;-80
2023/03/07 14:39:54;;;;;;;5.80;5.30;;;;;;;;;;4947252;28;20601;-80
2023/03/07 14:42:39;;;;;;;5.10;4.80;;;;;;;;;;4949677;28;20191;-82
2023/03/07 14:45:11;;;;;;;5.60;5.00;;;;;;;;;;4944025;29;20465;-80